Anchor Bay, California
Current Conditions -  °F | °C
As of 1:56 PM on Sunday 23 Nov 2014 (Local Time) from KUKI Reporting Station
Scattered Clouds Scattered Clouds  
Wind Chill: 59°   Ceiling: Unl
Heat Index: 59°   Visibility: 10mi
Dew Point: 39°   Wind: 0mph
Humidity: 48%   Direction: NA
Pressure: 30.29"   Gusts: NA
Location:  38.8361°N, 123.43°W
Report Text: KUKI 232156Z AUTO 00000KT 10SM SCT120 15/04 A3029 RMK AO2 SLP255 T01500039
Loading
Personal Weather Stations






























Interactive Weather Map New forecast layout! Learn more

10-Day Weather Forecast

Advertisements
Track Severe Weather on mobile